createdAt,value
2022-11-05T00:00:06.203Z,21.15
2022-11-05T00:02:51.779Z,20.42
2022-11-05T00:05:37.153Z,20.13
2022-11-05T00:08:23.773Z,20.35
2022-11-05T00:10:50.770Z,22.00
2022-11-05T00:13:36.268Z,21.30
2022-11-05T00:16:41.360Z,21.08
2022-11-05T00:19:09.045Z,21.55
2022-11-05T00:21:56.760Z,20.75
2022-11-05T00:24:43.189Z,20.05
2022-11-05T00:27:10.632Z,20.55
2022-11-05T00:29:37.503Z,21.73
2022-11-05T00:32:04.603Z,21.15
2022-11-05T00:34:31.489Z,21.83
2022-11-05T00:36:58.349Z,22.45
2022-11-05T00:39:25.256Z,21.25
2022-11-05T00:42:12.096Z,20.40
2022-11-05T00:44:57.622Z,22.10
2022-11-05T00:47:42.790Z,21.33
2022-11-05T00:50:10.926Z,19.50
2022-11-05T00:52:56.992Z,20.08
2022-11-05T00:55:45.034Z,21.20
2022-11-05T00:58:22.336Z,20.67
2022-11-05T01:00:51.899Z,21.05
2022-11-05T01:03:21.391Z,20.42
2022-11-05T01:05:52.035Z,21.00
2022-11-05T01:08:20.715Z,20.67
2022-11-05T01:10:56.562Z,20.85
2022-11-05T01:13:27.016Z,20.85
2022-11-05T01:15:55.836Z,21.33
2022-11-05T01:18:24.245Z,21.15
2022-11-05T01:20:51.608Z,21.48
2022-11-05T01:23:18.849Z,21.30
2022-11-05T01:25:46.279Z,20.13
2022-11-05T01:28:13.216Z,20.48
2022-11-05T01:30:40.292Z,22.40
2022-11-05T01:33:07.417Z,21.00
2022-11-05T01:35:34.286Z,21.95
2022-11-05T01:38:01.171Z,31.50
2022-11-05T01:40:28.388Z,21.90
2022-11-05T01:42:55.224Z,21.13
2022-11-05T01:45:26.802Z,18.40
2022-11-05T01:48:15.749Z,19.95
2022-11-05T01:50:57.869Z,20.73
2022-11-05T01:53:36.011Z,21.02
2022-11-05T01:56:08.386Z,19.70
2022-11-05T01:58:47.084Z,20.55
2022-11-05T02:01:13.916Z,20.55
2022-11-05T02:03:42.215Z,20.38
2022-11-05T02:06:09.414Z,19.83
2022-11-05T02:09:02.982Z,20.88
2022-11-05T02:11:30.238Z,19.73
2022-11-05T02:13:57.391Z,19.33
2022-11-05T02:16:41.469Z,17.20
2022-11-05T02:19:33.302Z,20.20
2022-11-05T02:22:15.872Z,19.77
2022-11-05T02:25:10.059Z,20.60
2022-11-05T02:27:40.037Z,19.58
2022-11-05T02:30:19.350Z,19.67
2022-11-05T02:33:05.844Z,19.13
2022-11-05T02:35:56.957Z,20.27
2022-11-05T02:39:00.834Z,19.58
2022-11-05T02:44:22.037Z,20.33
2022-11-05T02:46:57.529Z,21.92
2022-11-05T02:49:41.368Z,21.15
2022-11-05T02:52:25.708Z,20.42
2022-11-05T02:55:03.342Z,18.77
2022-11-05T02:57:34.167Z,21.05
2022-11-05T03:00:08.331Z,19.77
2022-11-05T03:02:35.540Z,20.95
2022-11-05T03:05:03.337Z,21.40
2022-11-05T03:07:49.974Z,19.27
2022-11-05T03:10:37.012Z,20.17
2022-11-05T03:13:22.395Z,19.67
2022-11-05T03:16:03.095Z,20.30
2022-11-05T03:18:46.382Z,20.77
2022-11-05T03:21:44.085Z,19.23
2022-11-05T03:24:14.251Z,21.70
2022-11-05T03:26:54.627Z,20.42
2022-11-05T03:29:30.358Z,21.35
2022-11-05T03:31:59.550Z,20.83
2022-11-05T03:34:32.112Z,20.60
2022-11-05T03:37:00.153Z,20.52
2022-11-05T03:39:35.633Z,19.65
2022-11-05T03:42:06.240Z,21.75
2022-11-05T03:44:36.673Z,20.50
2022-11-05T03:47:11.098Z,21.88
2022-11-05T03:49:48.888Z,20.13
2022-11-05T03:52:19.851Z,21.67
2022-11-05T03:54:47.236Z,20.35
2022-11-05T03:57:27.967Z,21.38
2022-11-05T03:59:54.849Z,21.27
2022-11-05T04:02:24.187Z,20.45
2022-11-05T04:04:51.703Z,21.88
2022-11-05T04:07:37.330Z,20.50
2022-11-05T04:10:23.180Z,21.33
2022-11-05T04:13:08.611Z,21.63
2022-11-05T04:15:55.672Z,21.38
2022-11-05T04:18:23.041Z,22.27
2022-11-05T04:21:08.312Z,18.98
2022-11-05T04:23:53.921Z,21.50
2022-11-05T04:26:23.591Z,21.58
2022-11-05T04:29:10.125Z,21.98
2022-11-05T04:31:37.722Z,21.27
2022-11-05T04:34:04.662Z,20.60
2022-11-05T04:36:32.035Z,21.73
2022-11-05T04:38:58.921Z,21.38
2022-11-05T04:41:26.290Z,21.80
2022-11-05T04:43:53.228Z,20.92
2022-11-05T04:46:20.549Z,20.75
2022-11-05T04:48:47.533Z,20.23
2022-11-05T04:51:14.475Z,20.00
2022-11-05T04:53:41.330Z,21.80
2022-11-05T04:56:15.189Z,21.45
2022-11-05T04:58:42.991Z,20.65
2022-11-05T05:01:14.788Z,21.88
2022-11-05T05:03:42.135Z,19.88
2022-11-05T05:06:09.481Z,19.00
2022-11-05T05:08:36.440Z,21.67
2022-11-05T05:11:08.770Z,21.27
2022-11-05T05:13:35.816Z,21.37
2022-11-05T05:16:07.723Z,21.58
2022-11-05T05:18:34.736Z,21.05
2022-11-05T05:21:20.870Z,19.33
2022-11-05T05:23:48.568Z,19.13
2022-11-05T05:26:16.832Z,20.67
2022-11-05T05:28:43.785Z,20.90
2022-11-05T05:31:10.727Z,21.10
2022-11-05T05:33:37.605Z,21.55
2022-11-05T05:36:10.932Z,21.00
2022-11-05T05:38:38.419Z,21.20
2022-11-05T05:41:05.404Z,21.95
2022-11-05T05:43:33.731Z,22.13
2022-11-05T05:46:04.456Z,18.77
2022-11-05T05:48:31.980Z,20.08
2022-11-05T05:51:06.872Z,20.60
2022-11-05T05:53:34.382Z,20.48
2022-11-05T05:56:01.415Z,20.33
2022-11-05T05:58:33.053Z,21.58
2022-11-05T06:01:06.455Z,20.17
2022-11-05T06:03:33.816Z,20.13
2022-11-05T06:06:05.776Z,21.00
2022-11-05T06:08:33.700Z,22.52
2022-11-05T06:11:01.574Z,23.33
2022-11-05T06:13:29.101Z,21.08
2022-11-05T06:16:03.316Z,20.90
2022-11-05T06:18:31.281Z,20.33
2022-11-05T06:21:06.907Z,20.48
2022-11-05T06:23:35.702Z,19.35
2022-11-05T06:26:06.954Z,20.00
2022-11-05T06:28:33.957Z,20.13
2022-11-05T06:31:01.948Z,21.33
2022-11-05T06:33:28.804Z,24.95
2022-11-05T06:35:59.214Z,21.42
2022-11-05T06:38:26.263Z,19.20
2022-11-05T06:40:53.211Z,20.08
2022-11-05T06:43:20.024Z,20.83
2022-11-05T06:45:46.922Z,36.22
2022-11-05T06:48:13.756Z,22.75
2022-11-05T06:50:44.476Z,25.75
2022-11-05T06:53:12.260Z,23.50
2022-11-05T06:55:39.799Z,20.02
2022-11-05T06:58:06.993Z,19.73
2022-11-05T07:00:33.917Z,21.83
2022-11-05T07:03:05.099Z,23.70
2022-11-05T07:05:32.813Z,24.67
2022-11-05T07:07:59.781Z,31.80
2022-11-05T07:10:26.736Z,22.95
2022-11-05T07:12:53.569Z,21.27
2022-11-05T07:15:20.505Z,26.15
2022-11-05T07:17:47.356Z,24.75
2022-11-05T07:20:14.202Z,28.10
2022-11-05T07:22:41.058Z,21.33
2022-11-05T07:25:08.298Z,20.75
2022-11-05T07:27:41.254Z,19.40
2022-11-05T07:30:11.949Z,20.20
2022-11-05T07:32:40.227Z,20.15
2022-11-05T07:35:09.013Z,21.58
2022-11-05T07:37:46.865Z,20.38
2022-11-05T07:40:15.446Z,20.23
2022-11-05T07:42:44.140Z,22.08
2022-11-05T07:45:11.775Z,21.10
2022-11-05T07:47:46.173Z,21.80
2022-11-05T07:50:13.085Z,16.67
2022-11-05T07:52:40.018Z,21.35
2022-11-05T07:55:07.488Z,20.13
2022-11-05T07:57:47.986Z,20.05
2022-11-05T08:00:25.630Z,19.83
2022-11-05T08:03:12.193Z,20.77
2022-11-05T08:05:42.126Z,19.73
2022-11-05T08:08:09.989Z,21.38
2022-11-05T08:10:37.829Z,19.67
2022-11-05T08:13:06.119Z,21.35
2022-11-05T08:15:33.851Z,21.55
2022-11-05T08:18:13.016Z,20.58
2022-11-05T08:20:40.950Z,19.52
2022-11-05T08:23:08.498Z,20.73
2022-11-05T08:25:35.873Z,20.60
2022-11-05T08:28:06.298Z,22.58
2022-11-05T08:30:33.351Z,21.60
2022-11-05T08:33:03.977Z,21.02
2022-11-05T08:35:31.314Z,19.30
2022-11-05T08:37:59.149Z,21.77
2022-11-05T08:40:27.036Z,21.58
2022-11-05T08:42:56.447Z,21.25
2022-11-05T08:45:23.275Z,20.85
2022-11-05T08:47:50.324Z,22.75
2022-11-05T08:50:17.648Z,19.92
2022-11-05T08:52:44.487Z,21.67
2022-11-05T08:55:11.353Z,15.85
2022-11-05T08:57:38.217Z,20.75
2022-11-05T09:00:05.550Z,18.05
2022-11-05T09:02:32.477Z,19.15
2022-11-05T09:04:59.326Z,21.13
2022-11-05T09:07:26.200Z,21.38
2022-11-05T09:09:53.242Z,19.42
2022-11-05T09:12:20.166Z,20.00
2022-11-05T09:14:47.106Z,20.48
2022-11-05T09:17:19.181Z,19.45
2022-11-05T09:19:46.316Z,19.73
2022-11-05T09:22:13.559Z,19.25
2022-11-05T09:24:42.699Z,21.92
2022-11-05T09:27:11.857Z,22.88
2022-11-05T09:29:39.315Z,21.80
2022-11-05T09:32:06.840Z,22.90
2022-11-05T09:34:33.921Z,22.50
2022-11-05T09:37:00.893Z,20.48
2022-11-05T09:39:28.456Z,21.40
2022-11-05T09:42:02.757Z,22.17
2022-11-05T09:44:55.890Z,37.55
2022-11-05T09:47:54.947Z,22.13
2022-11-05T09:50:40.350Z,21.25
2022-11-05T09:53:07.688Z,22.45
2022-11-05T09:55:38.825Z,22.52
2022-11-05T09:58:28.860Z,20.90
2022-11-05T10:00:57.155Z,22.05
2022-11-05T10:03:26.348Z,21.83
2022-11-05T10:05:57.225Z,22.80
2022-11-05T10:08:29.471Z,19.98
2022-11-05T10:11:18.524Z,22.35
2022-11-05T10:13:54.569Z,23.23
2022-11-05T10:16:31.537Z,23.52
2022-11-05T10:19:07.677Z,21.83
2022-11-05T10:22:04.306Z,23.80
2022-11-05T10:24:21.881Z,22.92
2022-11-05T10:26:52.405Z,24.52
2022-11-05T10:29:37.349Z,23.40
2022-11-05T10:32:06.043Z,22.98
2022-11-05T10:34:36.176Z,23.10
2022-11-05T10:37:04.258Z,24.60
2022-11-05T10:39:33.069Z,23.55
2022-11-05T10:42:24.516Z,22.33
2022-11-05T10:45:28.094Z,23.30
2022-11-05T10:48:28.276Z,23.38
2022-11-05T10:50:55.731Z,24.58
2022-11-05T10:53:33.193Z,26.30
2022-11-05T10:56:00.275Z,24.85
2022-11-05T10:58:30.349Z,24.50
2022-11-05T11:00:57.258Z,23.67
2022-11-05T11:03:41.234Z,25.08
2022-11-05T11:06:19.883Z,24.25
2022-11-05T11:08:48.980Z,23.98
2022-11-05T11:11:37.026Z,24.95
2022-11-05T11:14:09.935Z,25.25
2022-11-05T11:16:39.811Z,26.50
2022-11-05T11:19:23.362Z,25.15
2022-11-05T11:22:16.887Z,26.02
2022-11-05T11:24:50.072Z,28.17
2022-11-05T11:30:04.211Z,24.70
2022-11-05T11:32:40.234Z,26.15
2022-11-05T11:35:18.557Z,27.67
2022-11-05T11:37:46.805Z,26.98
2022-11-05T11:40:29.443Z,28.65
2022-11-05T11:43:00.503Z,28.52
2022-11-05T11:45:37.471Z,27.55
2022-11-05T11:48:13.949Z,27.85
2022-11-05T11:50:43.789Z,29.33
2022-11-05T11:53:29.022Z,29.33
2022-11-05T11:55:55.887Z,31.50
2022-11-05T11:58:25.328Z,31.55
2022-11-05T12:01:36.380Z,31.05
2022-11-05T12:04:27.586Z,31.40
2022-11-05T12:07:03.209Z,30.58
2022-11-05T12:09:36.334Z,30.95
2022-11-05T12:14:33.190Z,35.42
2022-11-05T12:17:15.378Z,30.85
2022-11-05T12:20:05.346Z,30.45
2022-11-05T12:23:00.082Z,32.70
2022-11-05T12:25:55.390Z,32.03
2022-11-05T12:29:12.082Z,34.05
2022-11-05T12:31:54.234Z,35.53
2022-11-05T12:34:44.737Z,36.45
2022-11-05T12:37:14.530Z,36.13
2022-11-05T12:40:04.351Z,36.25
2022-11-05T12:42:48.530Z,35.63
2022-11-05T12:45:39.225Z,36.55
2022-11-05T12:48:27.541Z,38.15
2022-11-05T12:51:19.909Z,41.38
2022-11-05T12:54:00.691Z,39.55
2022-11-05T12:56:52.370Z,40.42
2022-11-05T12:59:41.668Z,42.08
2022-11-05T13:02:25.387Z,42.83
2022-11-05T13:05:04.158Z,42.45
2022-11-05T13:07:37.735Z,43.53
2022-11-05T13:10:16.415Z,40.90
2022-11-05T13:12:44.627Z,36.85
2022-11-05T13:15:26.736Z,38.85
2022-11-05T13:18:01.755Z,41.80
2022-11-05T13:20:32.974Z,41.08
2022-11-05T13:23:17.996Z,50.80
2022-11-05T13:25:51.693Z,42.65
2022-11-05T13:28:47.004Z,45.30
2022-11-05T13:31:18.769Z,44.13
2022-11-05T13:33:48.874Z,43.28
2022-11-05T13:37:06.050Z,45.33
2022-11-05T13:39:38.338Z,46.10
2022-11-05T13:42:27.183Z,44.83
2022-11-05T13:45:06.384Z,43.70
2022-11-05T13:47:50.244Z,43.13
2022-11-05T13:51:01.565Z,42.50
2022-11-05T13:53:53.403Z,45.17
2022-11-05T13:56:39.207Z,46.05
2022-11-05T13:59:16.286Z,47.40
2022-11-05T14:01:55.850Z,44.35
2022-11-05T14:04:41.152Z,43.58
2022-11-05T14:07:11.875Z,42.45
2022-11-05T14:09:40.364Z,45.22
2022-11-05T14:12:26.577Z,49.20
2022-11-05T14:15:00.683Z,47.50
2022-11-05T14:17:33.393Z,42.42
2022-11-05T14:20:10.201Z,47.85
2022-11-05T14:22:40.577Z,46.70
2022-11-05T14:25:19.704Z,44.40
2022-11-05T14:27:49.287Z,47.00
2022-11-05T14:30:41.281Z,48.35
2022-11-05T14:33:25.977Z,48.45
2022-11-05T14:36:20.659Z,48.85
2022-11-05T14:38:53.350Z,47.08
2022-11-05T14:41:21.435Z,46.03
2022-11-05T14:43:55.014Z,43.92
2022-11-05T14:46:22.196Z,44.22
2022-11-05T14:49:05.210Z,44.75
2022-11-05T14:51:44.210Z,41.63
2022-11-05T14:54:29.492Z,44.95
2022-11-05T14:56:59.218Z,46.15
2022-11-05T14:59:28.198Z,46.40
2022-11-05T15:02:03.938Z,44.35
2022-11-05T15:04:36.228Z,44.95
2022-11-05T15:07:03.143Z,52.33
2022-11-05T15:09:35.904Z,47.83
2022-11-05T15:12:27.080Z,44.55
2022-11-05T15:14:59.148Z,45.00
2022-11-05T15:17:40.852Z,46.22
2022-11-05T15:20:08.524Z,46.45
2022-11-05T15:22:40.392Z,46.05
2022-11-05T15:25:21.446Z,46.58
2022-11-05T15:27:59.959Z,45.83
2022-11-05T15:30:27.189Z,43.25
2022-11-05T15:32:54.038Z,44.75
2022-11-05T15:35:28.011Z,44.75
2022-11-05T15:38:01.757Z,47.35
2022-11-05T15:40:34.059Z,46.58
2022-11-05T15:43:11.469Z,46.38
2022-11-05T15:45:38.709Z,46.95
2022-11-05T15:48:14.439Z,46.65
2022-11-05T15:50:41.916Z,49.63
2022-11-05T15:53:47.509Z,44.53
2022-11-05T15:56:29.358Z,45.47
2022-11-05T15:59:02.862Z,47.63
2022-11-05T16:01:35.059Z,47.83
2022-11-05T16:04:19.080Z,48.37
2022-11-05T16:06:49.077Z,44.45
2022-11-05T16:09:25.474Z,44.90
2022-11-05T16:12:24.256Z,44.30
2022-11-05T16:15:19.124Z,45.72
2022-11-05T16:17:56.338Z,43.50
2022-11-05T16:20:25.246Z,44.90
2022-11-05T16:22:58.624Z,46.53
2022-11-05T16:25:31.158Z,45.72
2022-11-05T16:27:59.640Z,46.28
2022-11-05T16:30:27.055Z,45.13
2022-11-05T16:32:54.648Z,41.45
2022-11-05T16:35:23.857Z,41.97
2022-11-05T16:37:52.721Z,40.00
2022-11-05T16:40:24.296Z,38.92
2022-11-05T16:42:52.755Z,40.90
2022-11-05T16:45:24.769Z,39.70
2022-11-05T16:47:51.987Z,39.90
2022-11-05T16:50:18.776Z,41.92
2022-11-05T16:52:47.054Z,40.75
2022-11-05T16:55:15.197Z,40.53
2022-11-05T16:57:44.686Z,38.10
2022-11-05T17:00:15.775Z,40.53
2022-11-05T17:02:43.258Z,40.67
2022-11-05T17:05:34.435Z,40.80
2022-11-05T17:08:01.894Z,40.90
2022-11-05T17:10:28.963Z,41.65
2022-11-05T17:12:55.930Z,39.50
2022-11-05T17:15:29.188Z,40.40
2022-11-05T17:17:56.914Z,37.95
2022-11-05T17:20:45.726Z,38.10
2022-11-05T17:23:16.435Z,38.45
2022-11-05T17:25:47.085Z,38.55
2022-11-05T17:28:14.621Z,38.17
2022-11-05T17:30:42.491Z,37.35
2022-11-05T17:33:11.855Z,40.40
2022-11-05T17:35:40.783Z,40.42
2022-11-05T17:38:08.423Z,39.45
2022-11-05T17:40:36.429Z,40.47
2022-11-05T17:43:03.949Z,38.13
2022-11-05T17:45:31.317Z,39.35
2022-11-05T17:47:58.284Z,39.88
2022-11-05T17:50:25.277Z,39.58
2022-11-05T17:52:52.115Z,41.40
2022-11-05T17:55:19.105Z,39.60
2022-11-05T17:57:50.830Z,39.17
2022-11-05T18:00:21.558Z,40.80
2022-11-05T18:02:49.709Z,38.75
2022-11-05T18:05:22.041Z,40.30
2022-11-05T18:07:49.554Z,40.75
2022-11-05T18:10:17.158Z,40.63
2022-11-05T18:12:45.689Z,37.53
2022-11-05T18:15:13.684Z,38.72
2022-11-05T18:17:41.202Z,39.72
2022-11-05T18:20:15.765Z,41.35
2022-11-05T18:22:46.068Z,39.80
2022-11-05T18:25:14.272Z,43.05
2022-11-05T18:27:41.878Z,42.45
2022-11-05T18:30:10.006Z,41.47
2022-11-05T18:32:37.057Z,41.03
2022-11-05T18:35:04.234Z,37.42
2022-11-05T18:37:31.069Z,37.92
2022-11-05T18:39:57.923Z,38.42
2022-11-05T18:42:25.415Z,37.38
2022-11-05T18:44:52.320Z,37.53
2022-11-05T18:47:19.241Z,50.60
2022-11-05T18:49:46.168Z,47.00
2022-11-05T18:52:13.270Z,40.90
2022-11-05T18:54:40.230Z,48.30
2022-11-05T18:57:07.389Z,48.88
2022-11-05T18:59:38.270Z,49.28
2022-11-05T19:02:07.955Z,47.42
2022-11-05T19:04:38.458Z,48.85
2022-11-05T19:07:06.655Z,46.70
2022-11-05T19:09:34.743Z,47.40
2022-11-05T19:12:02.884Z,47.38
2022-11-05T19:14:30.289Z,47.72
2022-11-05T19:17:00.975Z,45.95
2022-11-05T19:19:28.217Z,46.67
2022-11-05T19:21:55.155Z,46.53
2022-11-05T19:24:22.029Z,48.35
2022-11-05T19:26:48.971Z,49.03
2022-11-05T19:29:16.374Z,51.17
2022-11-05T19:31:43.715Z,54.60
2022-11-05T19:34:10.550Z,54.28
2022-11-05T19:36:37.407Z,54.80
2022-11-05T19:39:08.825Z,54.85
2022-11-05T19:41:35.899Z,53.85
2022-11-05T19:44:03.002Z,54.83
2022-11-05T19:46:30.929Z,59.42
2022-11-05T19:48:59.136Z,55.20
2022-11-05T19:51:29.113Z,56.17
2022-11-05T19:53:56.300Z,52.85
2022-11-05T19:56:30.772Z,55.75
2022-11-05T19:58:58.444Z,54.25
2022-11-05T20:01:27.673Z,54.15
2022-11-05T20:03:56.757Z,52.47
2022-11-05T20:06:32.284Z,54.17
2022-11-05T20:11:49.926Z,52.83
2022-11-05T20:14:17.353Z,51.47
2022-11-05T20:16:46.251Z,54.60
2022-11-05T20:19:16.092Z,56.05
2022-11-05T20:21:43.589Z,55.13
2022-11-05T20:24:16.126Z,57.47
2022-11-05T20:26:45.651Z,56.33
2022-11-05T20:29:13.038Z,55.78
2022-11-05T20:31:39.915Z,54.83
2022-11-05T20:34:07.349Z,57.15
2022-11-05T20:36:34.187Z,52.33
2022-11-05T20:39:02.920Z,53.20
2022-11-05T20:41:30.780Z,53.25
2022-11-05T20:43:57.774Z,52.20
2022-11-05T20:46:24.917Z,53.17
2022-11-05T20:48:51.919Z,53.53
2022-11-05T20:51:20.854Z,51.58
2022-11-05T20:53:48.416Z,52.20
2022-11-05T20:56:19.763Z,60.67
2022-11-05T20:58:47.477Z,62.70
2022-11-05T21:01:16.295Z,55.17
2022-11-05T21:03:44.404Z,58.85
2022-11-05T21:06:12.065Z,58.63
2022-11-05T21:08:39.116Z,60.22
2022-11-05T21:11:07.281Z,56.65
2022-11-05T21:13:34.189Z,58.45
2022-11-05T21:16:01.872Z,57.83
2022-11-05T21:18:31.627Z,60.38
2022-11-05T21:21:00.463Z,61.15
2022-11-05T21:23:28.211Z,58.63
2022-11-05T21:25:55.146Z,57.90
2022-11-05T21:28:22.343Z,60.38
2022-11-05T21:30:49.271Z,60.20
2022-11-05T21:33:18.182Z,55.00
2022-11-05T21:35:47.215Z,54.65
2022-11-05T21:38:16.443Z,54.83
2022-11-05T21:40:44.661Z,53.03
2022-11-05T21:43:12.221Z,53.70
2022-11-05T21:45:40.244Z,56.17
2022-11-05T21:48:08.508Z,53.35
2022-11-05T21:50:56.814Z,53.45
2022-11-05T21:53:42.832Z,51.88
2022-11-05T21:56:37.390Z,51.35
2022-11-05T21:59:23.947Z,53.47
2022-11-05T22:01:51.063Z,53.30
2022-11-05T22:04:17.993Z,53.30
2022-11-05T22:06:44.876Z,53.17
2022-11-05T22:09:11.740Z,54.17
2022-11-05T22:11:38.813Z,52.10
2022-11-05T22:14:05.805Z,51.28
2022-11-05T22:16:32.652Z,50.28
2022-11-05T22:19:00.177Z,53.35
2022-11-05T22:21:27.461Z,51.53
2022-11-05T22:23:54.472Z,53.42
2022-11-05T22:26:21.367Z,52.00
2022-11-05T22:28:48.322Z,76.70
2022-11-05T22:31:16.576Z,63.45
2022-11-05T22:33:44.240Z,53.42
2022-11-05T22:36:11.938Z,56.70
2022-11-05T22:38:39.363Z,60.80
2022-11-05T22:41:10.847Z,58.53
2022-11-05T22:43:39.674Z,61.50
2022-11-05T22:46:15.817Z,56.88
2022-11-05T22:48:43.353Z,57.58
2022-11-05T22:51:16.337Z,57.35
2022-11-05T22:56:13.421Z,54.45
2022-11-05T22:58:40.538Z,56.97
2022-11-05T23:01:08.740Z,56.97
2022-11-05T23:03:35.641Z,57.63
2022-11-05T23:06:05.468Z,56.70
2022-11-05T23:08:50.997Z,57.72
2022-11-05T23:11:38.649Z,59.15
2022-11-05T23:14:10.944Z,58.28
2022-11-05T23:17:13.908Z,88.87
2022-11-05T23:19:59.971Z,58.63
2022-11-05T23:23:08.070Z,56.95
2022-11-05T23:25:35.331Z,56.42
2022-11-05T23:28:07.568Z,58.20
2022-11-05T23:30:34.438Z,60.43
2022-11-05T23:33:01.281Z,56.95
2022-11-05T23:35:46.657Z,58.95
2022-11-05T23:38:31.885Z,53.53
2022-11-05T23:41:21.043Z,52.08
2022-11-05T23:44:06.563Z,62.88
2022-11-05T23:46:51.868Z,54.33
2022-11-05T23:49:18.974Z,50.58
2022-11-05T23:51:45.933Z,52.38
2022-11-05T23:54:13.113Z,49.20
2022-11-05T23:56:39.994Z,51.60
2022-11-05T23:59:06.853Z,51.00
